Time;durP1;ratioP1;P1;durP2;ratioP2;P2;SDS_P1;SDS_P2;PMS_P1;PMS_P2;Temp;Humidity;BMP_temperature;BMP_pressure;BME280_temperature;BME280_humidity;BME280_pressure;Samples;Min_cycle;Max_cycle;Signal;HPM_P1;HPM_P2
2023/08/18 00:00:36;;;;;;;6.00;2.90;;;21.00;92.20;;;;;;5114612;28;20463;-68
2023/08/18 00:03:04;;;;;;;6.10;2.20;;;21.00;92.10;;;;;;5115147;28;20463;-74
2023/08/18 00:05:31;;;;;;;7.27;2.83;;;21.00;91.70;;;;;;5114798;28;20441;-68
2023/08/18 00:07:58;;;;;;;5.67;3.20;;;20.90;91.50;;;;;;5114796;28;20466;-69
2023/08/18 00:10:26;;;;;;;4.37;2.80;;;20.90;91.70;;;;;;5114880;28;20541;-69
2023/08/18 00:12:53;;;;;;;6.73;2.97;;;20.80;92.00;;;;;;5113369;28;20820;-68
2023/08/18 00:15:20;;;;;;;7.10;3.23;;;20.80;92.20;;;;;;5114242;28;20430;-68
2023/08/18 00:17:47;;;;;;;5.03;2.67;;;20.70;92.30;;;;;;5114631;28;20462;-68
2023/08/18 00:20:14;;;;;;;5.07;2.73;;;20.70;92.70;;;;;;5114570;28;20434;-68
2023/08/18 00:22:41;;;;;;;3.13;2.50;;;20.60;93.00;;;;;;5114517;28;20889;-68
2023/08/18 00:25:09;;;;;;;7.23;2.73;;;20.60;92.80;;;;;;5114086;28;20483;-69
2023/08/18 00:27:38;;;;;;;4.50;2.87;;;20.60;93.10;;;;;;5114386;28;20466;-68
2023/08/18 00:30:10;;;;;;;3.93;2.60;;;20.50;93.50;;;;;;5114289;28;20928;-68
2023/08/18 00:32:37;;;;;;;8.73;2.70;;;20.50;93.50;;;;;;5114186;28;20939;-68
2023/08/18 00:35:04;;;;;;;4.60;2.90;;;20.50;93.30;;;;;;5113990;28;20518;-69
2023/08/18 00:37:33;;;;;;;4.00;2.70;;;20.50;92.80;;;;;;5114268;28;20473;-68
2023/08/18 00:40:00;;;;;;;5.73;3.80;;;20.50;92.70;;;;;;5114321;28;20438;-68
2023/08/18 00:42:27;;;;;;;6.63;3.20;;;20.40;92.80;;;;;;5114243;28;20504;-68
2023/08/18 00:44:57;;;;;;;6.17;3.60;;;20.40;93.00;;;;;;5106479;27;20446;-68
2023/08/18 00:47:24;;;;;;;5.40;3.13;;;20.30;93.20;;;;;;5114015;28;20527;-68
2023/08/18 00:49:54;;;;;;;5.07;2.60;;;20.40;93.00;;;;;;5113996;28;20463;-68
2023/08/18 00:52:21;;;;;;;4.30;2.70;;;20.30;92.80;;;;;;5113942;28;20430;-68
2023/08/18 00:54:51;;;;;;;5.30;2.83;;;20.30;92.80;;;;;;5113983;28;20846;-68
2023/08/18 00:57:18;;;;;;;4.23;3.10;;;20.30;92.90;;;;;;5113547;28;20449;-69
2023/08/18 00:59:46;;;;;;;8.43;3.87;;;20.20;92.90;;;;;;5113545;28;20513;-68
2023/08/18 01:02:15;;;;;;;6.43;2.43;;;20.20;93.00;;;;;;5113481;28;20434;-68
2023/08/18 01:04:42;;;;;;;4.07;2.27;;;20.10;93.00;;;;;;5114160;28;20433;-69
2023/08/18 01:07:15;;;;;;;4.17;3.17;;;20.10;92.80;;;;;;5113919;28;20426;-69
2023/08/18 01:09:42;;;;;;;3.90;3.03;;;20.00;93.30;;;;;;5114262;28;20545;-68
2023/08/18 01:12:19;;;;;;;5.67;3.20;;;20.00;93.40;;;;;;5118115;28;20437;-68
2023/08/18 01:15:00;;;;;;;6.73;3.20;;;20.00;93.60;;;;;;5118128;28;20777;-68
2023/08/18 01:17:41;;;;;;;4.10;3.13;;;20.00;93.90;;;;;;5117956;28;20842;-68
2023/08/18 01:20:10;;;;;;;5.30;3.30;;;20.00;94.10;;;;;;5117262;28;20948;-69
2023/08/18 01:22:40;;;;;;;3.80;2.83;;;20.00;94.20;;;;;;5117748;28;20481;-68
2023/08/18 01:25:09;;;;;;;6.33;3.53;;;20.00;94.10;;;;;;5117726;28;20623;-68
2023/08/18 01:27:36;;;;;;;5.63;4.00;;;20.00;93.90;;;;;;5117358;28;20474;-68
2023/08/18 01:30:06;;;;;;;6.10;3.07;;;19.90;93.90;;;;;;5116927;28;20466;-68
2023/08/18 01:32:41;;;;;;;4.43;3.30;;;19.90;93.80;;;;;;5117653;28;20442;-68
2023/08/18 01:35:11;;;;;;;4.40;3.00;;;19.90;93.80;;;;;;5117429;28;20426;-69
2023/08/18 01:37:39;;;;;;;8.20;3.03;;;19.90;93.60;;;;;;5117361;28;20479;-68
2023/08/18 01:40:12;;;;;;;3.10;2.53;;;19.80;91.90;;;;;;5117473;28;20518;-68
2023/08/18 01:42:39;;;;;;;6.23;2.53;;;19.80;92.10;;;;;;5117226;28;20467;-69
2023/08/18 01:45:11;;;;;;;5.50;3.00;;;19.70;92.30;;;;;;5116966;28;20487;-68
2023/08/18 01:47:38;;;;;;;3.90;2.70;;;19.70;92.50;;;;;;5117110;28;20901;-68
2023/08/18 01:50:06;;;;;;;5.00;3.07;;;19.50;92.70;;;;;;5116866;28;20434;-68
2023/08/18 01:52:33;;;;;;;5.50;3.73;;;19.50;92.80;;;;;;5117268;28;20493;-68
2023/08/18 01:55:03;;;;;;;9.50;2.80;;;19.40;93.10;;;;;;5116781;28;20491;-68
2023/08/18 01:57:31;;;;;;;3.70;2.50;;;19.40;93.20;;;;;;5117202;28;20528;-68
2023/08/18 01:59:58;;;;;;;5.33;3.23;;;19.30;93.80;;;;;;5116686;28;20474;-68
2023/08/18 02:02:25;;;;;;;4.27;2.80;;;19.30;93.90;;;;;;5116614;28;20471;-69
2023/08/18 02:04:55;;;;;;;5.50;3.03;;;19.30;94.10;;;;;;5116637;28;20430;-68
2023/08/18 02:07:22;;;;;;;4.40;2.70;;;19.30;94.40;;;;;;5117030;28;20480;-68
2023/08/18 02:09:49;;;;;;;9.20;4.40;;;19.30;93.80;;;;;;5116394;28;20496;-68
2023/08/18 02:12:16;;;;;;;4.93;3.07;;;19.30;93.50;;;;;;5116415;28;20440;-68
2023/08/18 02:14:45;;;;;;;4.57;3.20;;;19.20;93.60;;;;;;5116564;28;20467;-68
2023/08/18 02:17:12;;;;;;;5.20;3.47;;;19.30;93.40;;;;;;5116463;28;20434;-68
2023/08/18 02:19:39;;;;;;;9.33;4.10;;;19.20;93.00;;;;;;5116362;28;20501;-69
2023/08/18 02:22:08;;;;;;;7.90;4.63;;;19.10;93.10;;;;;;5116257;28;20462;-68
2023/08/18 02:24:35;;;;;;;4.93;4.40;;;19.10;93.70;;;;;;5116229;28;21015;-68
2023/08/18 02:27:02;;;;;;;4.37;3.87;;;19.10;93.60;;;;;;5116183;28;20491;-68
2023/08/18 02:29:30;;;;;;;5.77;3.20;;;19.10;93.60;;;;;;5115648;28;20515;-68
2023/08/18 02:31:59;;;;;;;4.63;3.43;;;19.10;93.60;;;;;;5113950;28;20478;-68
2023/08/18 02:34:26;;;;;;;4.07;2.47;;;19.10;93.50;;;;;;5095977;28;20530;-68
2023/08/18 02:36:52;;;;;;;3.80;2.50;;;19.10;93.30;;;;;;5095719;28;20488;-68
2023/08/18 02:39:20;;;;;;;9.93;2.80;;;19.00;93.00;;;;;;5095975;28;20438;-68
2023/08/18 02:41:51;;;;;;;3.50;2.30;;;19.00;93.10;;;;;;5111218;28;20448;-68
2023/08/18 02:44:18;;;;;;;4.27;2.50;;;19.00;93.20;;;;;;5115742;28;20504;-68
2023/08/18 02:46:45;;;;;;;5.47;2.87;;;19.00;93.00;;;;;;5116174;28;20516;-69
2023/08/18 02:49:13;;;;;;;4.97;2.70;;;19.00;93.10;;;;;;5116384;28;20524;-68
2023/08/18 02:51:40;;;;;;;3.50;2.23;;;19.00;93.40;;;;;;5115856;28;20433;-68
2023/08/18 02:54:07;;;;;;;4.03;2.70;;;18.90;93.50;;;;;;5116042;28;20471;-68
2023/08/18 02:56:34;;;;;;;6.30;2.87;;;18.90;93.50;;;;;;5115595;28;20919;-68
2023/08/18 02:59:01;;;;;;;6.20;3.70;;;18.90;93.60;;;;;;5115912;28;20490;-68
2023/08/18 03:01:28;;;;;;;7.00;3.60;;;18.90;93.60;;;;;;5115179;28;20438;-68
2023/08/18 03:03:55;;;;;;;4.77;3.30;;;18.80;93.80;;;;;;5115370;28;20568;-68
2023/08/18 03:06:23;;;;;;;5.13;2.93;;;18.70;94.10;;;;;;5115807;28;20532;-68
2023/08/18 03:08:50;;;;;;;4.23;2.80;;;18.70;94.20;;;;;;5115705;28;20468;-69
2023/08/18 03:11:17;;;;;;;3.53;2.43;;;18.70;94.30;;;;;;5115635;28;20558;-68
2023/08/18 03:13:43;;;;;;;3.90;2.33;;;18.60;94.40;;;;;;5115512;28;20827;-68
2023/08/18 03:16:10;;;;;;;4.00;2.73;;;18.70;94.10;;;;;;5115181;28;20495;-68
2023/08/18 03:18:37;;;;;;;3.30;2.43;;;18.70;93.90;;;;;;5115463;28;20521;-68
2023/08/18 03:21:04;;;;;;;4.30;2.80;;;18.70;93.80;;;;;;5114850;28;20438;-68
2023/08/18 03:23:33;;;;;;;6.37;2.30;;;18.70;93.70;;;;;;5114955;28;20571;-68
2023/08/18 03:26:02;;;;;;;6.10;4.90;;;18.70;93.80;;;;;;5115385;28;20517;-68
2023/08/18 03:28:29;;;;;;;6.57;3.93;;;18.70;93.90;;;;;;5115146;28;20441;-68
2023/08/18 03:31:00;;;;;;;5.80;3.93;;;18.60;94.20;;;;;;5114839;28;20521;-68
2023/08/18 03:33:27;;;;;;;4.23;3.00;;;18.70;93.90;;;;;;5114646;28;20434;-68
2023/08/18 03:35:54;;;;;;;3.90;2.93;;;18.70;93.60;;;;;;5114926;28;20476;-68
2023/08/18 03:38:21;;;;;;;6.20;3.10;;;18.70;93.60;;;;;;5115222;28;20475;-68
2023/08/18 03:40:50;;;;;;;3.60;3.10;;;18.70;93.40;;;;;;5115156;28;20489;-68
2023/08/18 03:43:18;;;;;;;7.50;3.20;;;18.70;93.40;;;;;;5114844;28;20562;-68
2023/08/18 03:45:46;;;;;;;5.97;3.20;;;18.70;93.60;;;;;;5114932;28;20445;-68
2023/08/18 03:48:13;;;;;;;4.23;3.17;;;18.60;93.60;;;;;;5114907;28;20430;-68
2023/08/18 03:50:40;;;;;;;6.27;3.00;;;18.60;94.10;;;;;;5115128;28;20524;-68
2023/08/18 03:53:07;;;;;;;5.97;3.97;;;18.60;94.20;;;;;;5114457;28;20967;-68
2023/08/18 03:55:34;;;;;;;4.37;2.73;;;18.50;94.50;;;;;;5114431;28;20433;-69
2023/08/18 03:58:02;;;;;;;3.67;2.70;;;18.50;94.80;;;;;;5114406;28;20964;-68
2023/08/18 04:00:29;;;;;;;6.63;2.50;;;18.60;95.00;;;;;;5113964;28;20464;-68
2023/08/18 04:02:56;;;;;;;4.40;2.50;;;18.60;94.80;;;;;;5114829;28;20500;-68
2023/08/18 04:05:23;;;;;;;3.73;2.67;;;18.70;94.40;;;;;;5114588;28;20464;-68
2023/08/18 04:07:50;;;;;;;4.07;3.13;;;18.70;93.90;;;;;;5114367;28;20530;-68
2023/08/18 04:10:26;;;;;;;5.20;2.50;;;18.70;93.70;;;;;;5114457;28;20611;-68
2023/08/18 04:12:56;;;;;;;3.57;2.30;;;18.70;93.70;;;;;;5113873;28;20466;-68
2023/08/18 04:15:25;;;;;;;3.80;2.70;;;18.70;93.70;;;;;;5113771;28;20773;-68
2023/08/18 04:18:10;;;;;;;5.00;3.50;;;18.70;93.40;;;;;;5111082;28;20520;-68
2023/08/18 04:20:37;;;;;;;5.27;2.83;;;18.60;93.90;;;;;;5114131;28;20435;-68
2023/08/18 04:23:04;;;;;;;5.00;3.50;;;18.60;93.60;;;;;;5114071;28;20833;-68
2023/08/18 04:25:32;;;;;;;3.60;2.60;;;18.60;93.50;;;;;;5113675;28;20436;-68
2023/08/18 04:27:59;;;;;;;6.30;3.20;;;18.50;93.50;;;;;;5113325;28;20449;-68
2023/08/18 04:30:27;;;;;;;6.07;2.83;;;18.50;93.50;;;;;;5114162;28;20473;-68
2023/08/18 04:32:54;;;;;;;6.37;2.60;;;18.50;93.60;;;;;;5114007;28;20858;-69
2023/08/18 04:35:21;;;;;;;4.20;2.40;;;18.50;93.70;;;;;;5112990;28;20438;-68
2023/08/18 04:37:48;;;;;;;5.13;2.40;;;18.60;93.90;;;;;;5114032;28;20528;-68
2023/08/18 04:40:15;;;;;;;3.80;2.50;;;18.60;94.00;;;;;;5113734;28;20432;-68
2023/08/18 04:42:41;;;;;;;3.90;2.60;;;18.50;94.10;;;;;;5113545;28;20850;-68
2023/08/18 04:45:09;;;;;;;7.27;2.80;;;18.60;94.70;;;;;;5112557;28;20513;-68
2023/08/18 04:47:37;;;;;;;5.13;2.50;;;18.60;94.10;;;;;;5109657;28;20502;-68
2023/08/18 04:50:06;;;;;;;4.00;2.70;;;18.60;94.00;;;;;;5112629;28;20449;-68
2023/08/18 04:52:33;;;;;;;4.03;2.53;;;18.60;93.60;;;;;;5092202;28;20460;-68
2023/08/18 04:55:00;;;;;;;4.70;2.07;;;18.50;93.90;;;;;;5099422;28;20956;-70
2023/08/18 04:57:27;;;;;;;4.37;2.57;;;18.50;94.10;;;;;;5113024;28;20517;-68
2023/08/18 04:59:54;;;;;;;4.30;2.40;;;18.50;94.40;;;;;;5113108;28;20515;-69
2023/08/18 05:02:20;;;;;;;3.53;2.70;;;18.50;94.60;;;;;;5112613;28;20920;-68
2023/08/18 05:04:49;;;;;;;4.20;2.60;;;18.50;94.30;;;;;;5112618;28;20534;-68
2023/08/18 05:07:16;;;;;;;4.20;2.17;;;18.60;94.00;;;;;;5112812;28;20469;-68
2023/08/18 05:09:43;;;;;;;4.13;2.70;;;18.60;93.90;;;;;;5112391;28;20655;-70
2023/08/18 05:12:10;;;;;;;4.43;3.30;;;18.60;93.80;;;;;;5112443;28;20951;-68
2023/08/18 05:14:37;;;;;;;6.10;2.67;;;18.60;93.60;;;;;;5112616;28;20436;-68
2023/08/18 05:17:04;;;;;;;8.77;3.20;;;18.60;93.60;;;;;;5112325;28;20433;-68
2023/08/18 05:19:31;;;;;;;3.90;2.33;;;18.60;93.80;;;;;;5113028;28;20449;-68
2023/08/18 05:22:00;;;;;;;5.73;3.07;;;18.60;94.00;;;;;;5112695;28;20433;-68
2023/08/18 05:24:27;;;;;;;3.87;2.80;;;18.60;94.20;;;;;;5112678;28;20479;-68
2023/08/18 05:26:55;;;;;;;6.23;2.80;;;18.60;94.50;;;;;;5112971;28;20494;-68
2023/08/18 05:29:22;;;;;;;8.90;2.90;;;18.70;94.80;;;;;;5112502;28;20485;-68
2023/08/18 05:31:49;;;;;;;6.33;2.77;;;18.70;94.80;;;;;;5112561;28;20799;-68
2023/08/18 05:34:16;;;;;;;3.27;2.13;;;18.70;94.90;;;;;;5112280;28;20812;-69
2023/08/18 05:36:43;;;;;;;3.97;2.57;;;18.70;95.00;;;;;;5112233;28;20513;-69
2023/08/18 05:39:11;;;;;;;4.10;3.70;;;18.80;95.10;;;;;;5112300;28;20524;-68
2023/08/18 05:41:38;;;;;;;4.30;3.10;;;18.90;95.20;;;;;;5109810;28;20485;-75
2023/08/18 05:44:06;;;;;;;6.63;4.47;;;18.90;95.30;;;;;;5110724;28;20495;-68
2023/08/18 05:46:34;;;;;;;7.33;3.30;;;19.00;95.70;;;;;;5111390;28;20461;-68
2023/08/18 05:49:02;;;;;;;3.83;3.17;;;19.00;96.00;;;;;;5112533;28;20435;-68
2023/08/18 05:51:29;;;;;;;4.77;2.87;;;19.10;96.00;;;;;;5111986;28;20450;-69
2023/08/18 05:53:56;;;;;;;4.60;2.70;;;19.20;96.20;;;;;;5112514;28;20472;-68
2023/08/18 05:56:25;;;;;;;4.37;3.70;;;19.30;96.20;;;;;;5114619;28;20441;-68
2023/08/18 05:58:52;;;;;;;3.80;3.13;;;19.40;96.30;;;;;;5115475;28;20498;-68
2023/08/18 06:01:19;;;;;;;4.93;3.03;;;19.50;96.00;;;;;;5116016;28;20488;-69
2023/08/18 06:03:46;;;;;;;4.40;3.33;;;19.40;95.40;;;;;;5115507;28;20434;-68
2023/08/18 06:06:13;;;;;;;5.50;3.43;;;19.50;95.70;;;;;;5115322;28;20495;-68
2023/08/18 06:08:40;;;;;;;4.17;2.80;;;19.60;95.90;;;;;;5115858;28;20529;-68
2023/08/18 06:11:07;;;;;;;5.80;3.10;;;19.70;96.20;;;;;;5115301;28;21031;-69
2023/08/18 06:13:35;;;;;;;7.53;2.70;;;19.80;96.00;;;;;;5115235;28;21028;-69
2023/08/18 06:16:05;;;;;;;5.93;3.33;;;19.90;95.40;;;;;;5115208;28;20498;-68
2023/08/18 06:18:33;;;;;;;6.60;3.47;;;19.90;95.20;;;;;;5115105;28;20514;-69
2023/08/18 06:21:00;;;;;;;4.13;2.90;;;20.00;95.40;;;;;;5114044;28;20446;-69
2023/08/18 06:23:27;;;;;;;5.50;3.43;;;20.10;95.50;;;;;;5115316;28;20448;-68
2023/08/18 06:25:56;;;;;;;5.20;3.23;;;20.10;96.00;;;;;;5115355;28;20530;-68
2023/08/18 06:28:23;;;;;;;4.80;3.07;;;20.20;95.90;;;;;;5115123;28;20469;-71
2023/08/18 06:30:51;;;;;;;4.13;3.17;;;20.30;95.50;;;;;;5115129;28;20826;-68
2023/08/18 06:33:18;;;;;;;4.37;2.50;;;20.40;95.30;;;;;;5115705;28;20897;-68
2023/08/18 06:35:48;;;;;;;5.33;3.33;;;20.60;95.50;;;;;;5115833;28;20506;-69
2023/08/18 06:38:15;;;;;;;3.60;2.37;;;20.70;94.80;;;;;;5116327;28;20480;-68
2023/08/18 06:40:45;;;;;;;3.73;2.70;;;20.80;94.10;;;;;;5115876;28;20929;-68
2023/08/18 06:43:12;;;;;;;4.40;3.00;;;20.80;93.80;;;;;;5116219;28;20889;-68
2023/08/18 06:45:39;;;;;;;3.30;2.40;;;20.90;94.10;;;;;;5116036;28;20466;-68
2023/08/18 06:48:07;;;;;;;3.33;2.27;;;21.00;94.50;;;;;;5115900;28;20458;-68
2023/08/18 06:50:34;;;;;;;6.17;2.57;;;21.20;94.10;;;;;;5115932;28;20818;-68
2023/08/18 06:53:01;;;;;;;4.73;2.37;;;21.30;93.80;;;;;;5115681;28;20518;-68
2023/08/18 06:55:28;;;;;;;7.13;2.53;;;21.40;93.60;;;;;;5115534;28;20549;-68
2023/08/18 06:57:55;;;;;;;4.93;2.87;;;21.50;93.90;;;;;;5115808;28;20514;-68
2023/08/18 07:00:22;;;;;;;3.90;2.57;;;21.70;93.70;;;;;;5115397;28;20521;-68
2023/08/18 07:02:49;;;;;;;4.57;2.47;;;21.80;93.80;;;;;;5115602;28;20470;-69
2023/08/18 07:05:18;;;;;;;3.73;2.47;;;21.90;93.80;;;;;;5115539;28;20940;-68
2023/08/18 07:07:45;;;;;;;3.60;2.77;;;22.00;94.00;;;;;;5114560;28;20441;-68
2023/08/18 07:10:12;;;;;;;4.77;2.53;;;22.10;93.90;;;;;;5115459;28;20490;-68
2023/08/18 07:12:39;;;;;;;3.27;2.07;;;22.30;93.70;;;;;;5115343;28;20427;-69
2023/08/18 07:15:07;;;;;;;11.73;2.70;;;22.40;93.40;;;;;;5115290;28;20531;-69
2023/08/18 07:17:34;;;;;;;3.83;2.47;;;22.50;93.30;;;;;;5115316;28;20917;-69
2023/08/18 07:20:00;;;;;;;3.00;2.10;;;22.60;92.60;;;;;;5115222;28;20945;-68
2023/08/18 07:22:29;;;;;;;4.67;2.63;;;22.80;91.80;;;;;;5115291;28;20469;-69
2023/08/18 07:24:56;;;;;;;3.00;1.80;;;22.80;91.40;;;;;;5086900;27;20703;-76
2023/08/18 07:27:23;;;;;;;4.87;2.57;;;22.80;89.60;;;;;;5105690;27;20665;-70
2023/08/18 07:29:51;;;;;;;4.90;2.20;;;22.90;89.80;;;;;;5123851;27;20438;-70
2023/08/18 07:32:23;;;;;;;4.87;2.13;;;23.00;90.10;;;;;;5114828;28;20426;-69
2023/08/18 07:34:50;;;;;;;4.80;2.93;;;23.10;90.80;;;;;;5110707;28;20983;-69
2023/08/18 07:37:17;;;;;;;3.97;2.70;;;23.10;90.20;;;;;;5114611;28;20434;-69
2023/08/18 07:39:46;;;;;;;5.80;2.90;;;23.10;89.10;;;;;;5114758;27;20487;-69
2023/08/18 07:42:13;;;;;;;5.70;2.50;;;23.20;89.80;;;;;;5114992;28;20928;-69
2023/08/18 07:44:42;;;;;;;6.27;1.93;;;23.30;90.40;;;;;;5114499;28;20427;-69
2023/08/18 07:47:09;;;;;;;3.33;2.53;;;23.50;90.40;;;;;;5114886;28;20430;-69
2023/08/18 07:49:37;;;;;;;4.37;2.70;;;23.60;90.10;;;;;;5112632;28;20491;-69
2023/08/18 07:52:05;;;;;;;4.77;3.00;;;23.80;90.00;;;;;;5114190;28;20438;-68
2023/08/18 07:54:32;;;;;;;6.43;2.33;;;23.80;88.80;;;;;;5114669;28;20462;-69
2023/08/18 07:57:02;;;;;;;3.40;2.30;;;23.90;88.70;;;;;;5114657;28;20519;-69
2023/08/18 07:59:29;;;;;;;5.43;2.17;;;24.10;88.30;;;;;;5114052;28;20933;-70
2023/08/18 08:02:02;;;;;;;3.67;2.07;;;24.30;88.70;;;;;;5114696;28;20435;-69
2023/08/18 08:04:29;;;;;;;3.93;2.27;;;24.50;87.80;;;;;;5114126;28;20427;-70
2023/08/18 08:06:56;;;;;;;7.70;4.00;;;24.70;86.30;;;;;;5114304;28;20430;-69
2023/08/18 08:09:25;;;;;;;9.23;5.23;;;24.80;84.90;;;;;;5117858;27;20825;-69
2023/08/18 08:11:52;;;;;;;3.57;2.20;;;24.90;86.60;;;;;;5133949;27;20433;-69
2023/08/18 08:14:22;;;;;;;3.33;2.07;;;25.20;87.30;;;;;;5130846;27;20419;-69
2023/08/18 08:16:49;;;;;;;4.53;2.00;;;25.40;86.40;;;;;;5114398;28;20442;-69
2023/08/18 08:19:17;;;;;;;5.43;2.47;;;25.60;84.60;;;;;;5113893;28;20434;-70
2023/08/18 08:21:44;;;;;;;3.27;2.20;;;25.80;83.50;;;;;;5114198;28;20485;-69
2023/08/18 08:24:12;;;;;;;3.50;2.13;;;26.00;82.10;;;;;;5113734;28;20517;-69
2023/08/18 08:26:42;;;;;;;5.80;2.00;;;26.20;78.10;;;;;;5114092;28;20499;-69
2023/08/18 08:29:09;;;;;;;4.37;2.57;;;26.40;76.90;;;;;;5113790;28;20435;-69
2023/08/18 08:31:38;;;;;;;3.10;1.67;;;26.40;76.40;;;;;;5114027;28;20515;-70
2023/08/18 08:34:05;;;;;;;3.97;2.07;;;26.40;76.20;;;;;;5113132;28;20483;-70
2023/08/18 08:36:33;;;;;;;2.93;1.80;;;26.60;78.20;;;;;;5113848;28;20502;-69
2023/08/18 08:39:05;;;;;;;3.27;1.90;;;26.90;78.90;;;;;;5113623;28;20442;-70
2023/08/18 08:41:32;;;;;;;3.13;1.80;;;27.20;78.50;;;;;;5092816;28;20910;-69
2023/08/18 08:44:00;;;;;;;4.87;2.60;;;27.40;75.90;;;;;;5092575;28;20461;-69
2023/08/18 08:46:28;;;;;;;4.50;2.27;;;27.70;74.30;;;;;;5112949;28;20492;-69
2023/08/18 08:49:02;;;;;;;4.30;2.23;;;27.90;72.30;;;;;;5113660;28;20518;-69
2023/08/18 08:51:32;;;;;;;3.73;2.00;;;28.20;71.70;;;;;;5113472;28;20429;-69
2023/08/18 08:54:04;;;;;;;3.30;2.10;;;28.40;68.70;;;;;;5113420;28;20442;-69
2023/08/18 08:56:33;;;;;;;3.63;1.80;;;28.50;67.30;;;;;;5113721;28;20459;-69
2023/08/18 08:59:01;;;;;;;9.23;2.40;;;28.70;68.30;;;;;;5113387;28;20427;-69
2023/08/18 09:01:28;;;;;;;3.90;2.23;;;28.80;66.10;;;;;;5113595;28;20442;-69
2023/08/18 09:03:57;;;;;;;2.80;1.80;;;29.00;65.10;;;;;;5113675;28;20434;-69
2023/08/18 09:06:25;;;;;;;4.60;2.27;;;29.10;64.30;;;;;;5113422;28;20797;-69
2023/08/18 09:08:52;;;;;;;5.90;1.90;;;29.20;64.30;;;;;;5113582;28;20441;-69
2023/08/18 09:11:20;;;;;;;2.93;2.07;;;29.50;62.00;;;;;;5113066;28;20458;-69
2023/08/18 09:13:48;;;;;;;4.70;2.30;;;29.60;63.00;;;;;;5113443;28;20437;-69
2023/08/18 09:16:15;;;;;;;3.70;2.27;;;29.80;59.90;;;;;;5113406;28;20545;-69
2023/08/18 09:18:43;;;;;;;3.83;1.70;;;29.80;58.00;;;;;;5113434;28;20525;-69
2023/08/18 09:21:11;;;;;;;4.03;2.10;;;29.90;59.30;;;;;;5113145;28;20873;-69
2023/08/18 09:23:39;;;;;;;5.67;1.70;;;30.10;58.80;;;;;;5113668;28;20441;-70
2023/08/18 09:26:08;;;;;;;5.77;2.63;;;30.20;57.70;;;;;;5121724;28;20429;-69
2023/08/18 09:28:37;;;;;;;3.33;1.90;;;30.40;57.40;;;;;;5134132;27;20437;-69
2023/08/18 09:31:04;;;;;;;3.20;1.60;;;30.50;57.00;;;;;;5121855;27;20429;-69
2023/08/18 09:33:31;;;;;;;4.90;2.13;;;30.60;54.60;;;;;;5115467;28;20519;-70
2023/08/18 09:35:59;;;;;;;4.03;1.80;;;30.70;56.00;;;;;;5116856;28;20794;-69
2023/08/18 09:38:27;;;;;;;3.07;1.80;;;30.80;57.70;;;;;;5116824;28;20907;-69
2023/08/18 09:40:56;;;;;;;3.10;1.90;;;31.00;56.70;;;;;;5116998;27;20930;-69
2023/08/18 09:43:24;;;;;;;3.37;1.57;;;31.20;54.60;;;;;;5116880;28;20427;-70
2023/08/18 09:45:53;;;;;;;2.93;1.50;;;31.30;54.40;;;;;;5117416;27;20438;-69
2023/08/18 09:48:22;;;;;;;3.77;1.80;;;31.40;53.50;;;;;;5117301;28;20479;-69
2023/08/18 09:50:52;;;;;;;3.50;2.00;;;31.60;50.30;;;;;;5117078;28;20496;-69
2023/08/18 09:53:27;;;;;;;3.53;1.50;;;31.60;51.10;;;;;;5117539;28;20434;-69
2023/08/18 09:56:00;;;;;;;4.77;2.00;;;31.70;50.10;;;;;;5117241;28;20860;-69
2023/08/18 09:58:35;;;;;;;4.10;2.13;;;31.80;50.30;;;;;;5116787;28;20920;-69
2023/08/18 10:01:05;;;;;;;4.03;1.90;;;32.00;49.70;;;;;;5117042;28;20418;-70
2023/08/18 10:03:37;;;;;;;4.40;1.97;;;32.10;50.50;;;;;;5117135;28;20484;-69
2023/08/18 10:06:06;;;;;;;8.67;3.67;;;32.20;50.40;;;;;;5117031;28;20426;-70
2023/08/18 10:08:34;;;;;;;3.17;2.07;;;32.20;47.80;;;;;;5116922;28;20427;-70
2023/08/18 10:11:02;;;;;;;3.00;1.50;;;32.30;50.60;;;;;;5115222;28;20792;-70
2023/08/18 10:13:33;;;;;;;3.07;2.17;;;32.40;49.90;;;;;;5116811;28;20538;-69
2023/08/18 10:16:02;;;;;;;3.40;1.47;;;32.40;47.20;;;;;;5116747;28;20468;-69
2023/08/18 10:18:30;;;;;;;3.37;1.93;;;32.40;48.50;;;;;;5116697;28;20437;-70
2023/08/18 10:20:57;;;;;;;4.13;2.33;;;32.40;49.40;;;;;;5116331;28;20917;-70
2023/08/18 10:23:26;;;;;;;3.57;2.13;;;32.50;48.90;;;;;;5116278;28;20427;-69
2023/08/18 10:25:54;;;;;;;4.30;1.90;;;32.60;49.50;;;;;;5116594;28;20439;-70
2023/08/18 10:28:28;;;;;;;3.67;2.20;;;32.80;50.50;;;;;;5116455;28;20426;-70
2023/08/18 10:30:59;;;;;;;3.80;2.33;;;32.90;47.70;;;;;;5116262;28;20414;-69
2023/08/18 10:33:31;;;;;;;4.27;1.97;;;33.00;48.80;;;;;;5116205;28;20427;-69
2023/08/18 10:35:59;;;;;;;4.00;1.60;;;33.10;49.10;;;;;;5116213;28;20497;-70
2023/08/18 10:38:29;;;;;;;3.13;1.70;;;33.20;47.00;;;;;;5116467;28;20847;-69
2023/08/18 10:40:57;;;;;;;5.13;1.83;;;33.30;46.80;;;;;;5115943;28;20435;-70
2023/08/18 10:43:29;;;;;;;3.80;1.53;;;33.40;46.40;;;;;;5116425;28;20522;-70
2023/08/18 10:46:00;;;;;;;2.50;1.40;;;33.50;44.40;;;;;;5116275;28;20826;-70
2023/08/18 10:48:30;;;;;;;2.77;1.80;;;33.40;44.30;;;;;;5115884;28;20418;-70
2023/08/18 10:50:57;;;;;;;2.87;1.60;;;33.40;40.80;;;;;;5116112;28;20474;-69
2023/08/18 10:53:24;;;;;;;3.90;1.70;;;33.40;41.60;;;;;;5115964;28;20868;-69
2023/08/18 10:55:54;;;;;;;2.90;1.50;;;33.40;42.60;;;;;;5116236;28;20477;-69
2023/08/18 10:58:22;;;;;;;2.60;1.53;;;33.40;42.40;;;;;;5116245;28;20514;-69
2023/08/18 11:00:50;;;;;;;3.90;1.97;;;33.50;42.40;;;;;;5115906;28;20513;-70
2023/08/18 11:03:19;;;;;;;2.93;1.80;;;33.50;43.00;;;;;;5115613;28;20956;-69
2023/08/18 11:05:47;;;;;;;3.17;1.83;;;33.60;43.00;;;;;;5115893;28;20514;-69
2023/08/18 11:08:32;;;;;;;3.50;2.00;;;33.60;42.20;;;;;;5115176;28;20905;-70
2023/08/18 11:10:59;;;;;;;2.90;1.80;;;33.60;43.20;;;;;;5115326;28;20527;-70
2023/08/18 11:13:28;;;;;;;2.93;1.70;;;33.70;42.10;;;;;;5115313;28;20977;-69
2023/08/18 11:16:03;;;;;;;3.60;1.50;;;33.70;40.80;;;;;;5115320;28;20531;-69
2023/08/18 11:18:30;;;;;;;2.80;1.60;;;33.70;38.50;;;;;;5115376;28;20521;-70
2023/08/18 11:20:57;;;;;;;3.10;1.80;;;33.70;39.40;;;;;;5115686;28;20522;-69
2023/08/18 11:23:24;;;;;;;4.40;2.10;;;33.70;41.40;;;;;;5115538;28;20462;-70
2023/08/18 11:25:52;;;;;;;4.10;1.80;;;33.70;40.90;;;;;;5112350;28;20823;-69
2023/08/18 11:28:19;;;;;;;4.70;2.07;;;33.70;42.00;;;;;;5114627;28;20438;-69
2023/08/18 11:30:46;;;;;;;3.10;1.60;;;33.80;43.00;;;;;;5114482;28;20458;-73
2023/08/18 11:33:15;;;;;;;3.30;1.97;;;33.90;42.60;;;;;;5114760;28;20437;-75
2023/08/18 11:35:42;;;;;;;4.50;2.10;;;33.90;41.90;;;;;;5114758;28;20943;-70
2023/08/18 11:38:14;;;;;;;4.13;2.10;;;34.00;41.30;;;;;;5114015;28;20830;-69
2023/08/18 11:40:43;;;;;;;4.03;2.00;;;34.00;42.20;;;;;;5112683;28;20517;-69
2023/08/18 11:43:12;;;;;;;3.00;1.80;;;34.00;41.60;;;;;;5114855;28;20427;-70
2023/08/18 11:45:44;;;;;;;3.63;1.90;;;34.00;42.30;;;;;;5114446;28;20522;-70
2023/08/18 11:48:13;;;;;;;4.20;1.70;;;34.00;41.80;;;;;;5114938;28;20476;-69
2023/08/18 11:50:43;;;;;;;4.37;1.70;;;34.00;41.10;;;;;;5114636;28;20431;-70
2023/08/18 11:53:22;;;;;;;4.10;1.97;;;34.00;42.50;;;;;;5112773;28;20467;-71
2023/08/18 11:55:50;;;;;;;2.93;1.73;;;34.00;43.30;;;;;;5114365;28;20511;-70
2023/08/18 11:58:17;;;;;;;2.60;2.10;;;34.10;42.60;;;;;;5114047;28;20434;-70
2023/08/18 12:00:46;;;;;;;3.20;1.90;;;;;;;;;;5112063;27;20484;-68
2023/08/18 12:03:21;;;;;;;15.33;12.83;;;34.10;41.00;;;;;;5116295;27;20445;-68
2023/08/18 12:05:50;;;;;;;3.43;2.53;;;34.00;40.10;;;;;;5125695;27;20434;-68
2023/08/18 12:08:18;;;;;;;4.10;1.77;;;34.00;40.90;;;;;;5114408;28;20484;-68
2023/08/18 12:10:48;;;;;;;3.60;2.20;;;34.10;40.90;;;;;;5114292;28;20851;-70
2023/08/18 12:13:15;;;;;;;3.90;2.20;;;34.00;39.40;;;;;;5114537;28;20434;-70
2023/08/18 12:15:42;;;;;;;3.17;1.47;;;34.00;40.80;;;;;;5114153;28;20859;-69
2023/08/18 12:18:14;;;;;;;4.67;1.50;;;34.00;41.90;;;;;;5114310;28;20427;-69
2023/08/18 12:20:43;;;;;;;3.50;1.77;;;34.10;41.90;;;;;;5114157;28;20426;-69
2023/08/18 12:23:11;;;;;;;3.00;1.73;;;34.10;41.00;;;;;;5113667;28;20470;-69
2023/08/18 12:25:39;;;;;;;3.50;2.10;;;34.10;39.90;;;;;;5117386;27;20951;-69
2023/08/18 12:28:06;;;;;;;4.73;2.10;;;34.00;39.90;;;;;;5133810;27;20437;-69
2023/08/18 12:30:33;;;;;;;3.70;1.60;;;34.00;39.30;;;;;;5130215;27;20844;-69
2023/08/18 12:33:00;;;;;;;4.17;1.90;;;33.90;40.50;;;;;;5114163;28;20438;-70
2023/08/18 12:35:27;;;;;;;3.20;1.60;;;33.90;39.80;;;;;;5113972;28;20507;-69
2023/08/18 12:37:55;;;;;;;3.90;1.97;;;33.90;41.10;;;;;;5113855;28;20505;-70
2023/08/18 12:40:24;;;;;;;2.90;1.30;;;33.90;40.40;;;;;;5121234;27;20434;-70
2023/08/18 12:42:51;;;;;;;3.23;2.00;;;33.90;41.30;;;;;;5113940;28;20462;-70
2023/08/18 12:45:19;;;;;;;6.77;3.80;;;33.90;37.70;;;;;;5113749;28;20473;-69
2023/08/18 12:47:46;;;;;;;3.70;2.00;;;33.80;38.30;;;;;;5113536;28;20439;-71
2023/08/18 12:50:13;;;;;;;3.80;2.13;;;33.70;37.30;;;;;;5113877;28;20808;-70
2023/08/18 12:52:40;;;;;;;4.30;1.57;;;33.70;38.00;;;;;;5113947;28;20521;-71